sensor_id;sensor_type;location;lat;lon;timestamp;P1;durP1;ratioP1;P2;durP2;ratioP2
46377;SDS011;32083;47.360;9.650;2023-08-20T00:02:02;11.20;;;8.50;;
46377;SDS011;32083;47.360;9.650;2023-08-20T00:04:30;9.98;;;8.45;;
46377;SDS011;32083;47.360;9.650;2023-08-20T00:07:01;10.27;;;8.68;;
46377;SDS011;32083;47.360;9.650;2023-08-20T00:09:29;10.30;;;9.25;;
46377;SDS011;32083;47.360;9.650;2023-08-20T00:12:03;9.45;;;8.45;;
46377;SDS011;32083;47.360;9.650;2023-08-20T00:17:33;12.07;;;9.20;;
46377;SDS011;32083;47.360;9.650;2023-08-20T00:20:01;13.82;;;9.82;;
46377;SDS011;32083;47.360;9.650;2023-08-20T00:22:38;11.90;;;9.88;;
46377;SDS011;32083;47.360;9.650;2023-08-20T00:25:10;13.18;;;11.27;;
46377;SDS011;32083;47.360;9.650;2023-08-20T00:27:37;11.75;;;10.57;;
46377;SDS011;32083;47.360;9.650;2023-08-20T00:30:04;14.57;;;12.05;;
46377;SDS011;32083;47.360;9.650;2023-08-20T00:32:30;13.70;;;11.90;;
46377;SDS011;32083;47.360;9.650;2023-08-20T00:34:59;12.50;;;11.23;;
46377;SDS011;32083;47.360;9.650;2023-08-20T00:37:28;13.98;;;10.43;;
46377;SDS011;32083;47.360;9.650;2023-08-20T00:39:54;13.65;;;10.85;;
46377;SDS011;32083;47.360;9.650;2023-08-20T00:42:20;12.20;;;10.63;;
46377;SDS011;32083;47.360;9.650;2023-08-20T00:44:46;12.77;;;10.73;;
46377;SDS011;32083;47.360;9.650;2023-08-20T00:47:16;10.32;;;9.40;;
46377;SDS011;32083;47.360;9.650;2023-08-20T00:49:43;10.95;;;9.85;;
46377;SDS011;32083;47.360;9.650;2023-08-20T00:52:12;11.10;;;9.95;;
46377;SDS011;32083;47.360;9.650;2023-08-20T00:54:44;12.45;;;9.35;;
46377;SDS011;32083;47.360;9.650;2023-08-20T00:57:15;11.52;;;9.30;;
46377;SDS011;32083;47.360;9.650;2023-08-20T00:59:47;10.60;;;8.88;;
46377;SDS011;32083;47.360;9.650;2023-08-20T01:02:17;11.23;;;9.60;;
46377;SDS011;32083;47.360;9.650;2023-08-20T01:04:43;12.65;;;9.68;;
46377;SDS011;32083;47.360;9.650;2023-08-20T01:12:50;10.93;;;9.65;;
46377;SDS011;32083;47.360;9.650;2023-08-20T01:15:17;12.77;;;10.48;;
46377;SDS011;32083;47.360;9.650;2023-08-20T01:17:43;11.13;;;10.07;;
46377;SDS011;32083;47.360;9.650;2023-08-20T01:20:14;10.77;;;9.30;;
46377;SDS011;32083;47.360;9.650;2023-08-20T01:22:51;11.18;;;9.95;;
46377;SDS011;32083;47.360;9.650;2023-08-20T01:28:03;12.98;;;10.50;;
46377;SDS011;32083;47.360;9.650;2023-08-20T01:30:58;11.20;;;9.63;;
46377;SDS011;32083;47.360;9.650;2023-08-20T01:33:25;10.27;;;9.43;;
46377;SDS011;32083;47.360;9.650;2023-08-20T01:35:52;13.32;;;9.98;;
46377;SDS011;32083;47.360;9.650;2023-08-20T01:38:21;10.90;;;9.80;;
46377;SDS011;32083;47.360;9.650;2023-08-20T01:40:47;10.30;;;9.15;;
46377;SDS011;32083;47.360;9.650;2023-08-20T01:43:13;11.80;;;9.35;;
46377;SDS011;32083;47.360;9.650;2023-08-20T01:45:40;11.43;;;9.82;;
46377;SDS011;32083;47.360;9.650;2023-08-20T01:48:08;10.82;;;9.30;;
46377;SDS011;32083;47.360;9.650;2023-08-20T01:50:37;10.05;;;9.13;;
46377;SDS011;32083;47.360;9.650;2023-08-20T01:53:03;10.65;;;9.65;;
46377;SDS011;32083;47.360;9.650;2023-08-20T01:55:29;10.18;;;9.20;;
46377;SDS011;32083;47.360;9.650;2023-08-20T01:57:54;9.95;;;8.95;;
46377;SDS011;32083;47.360;9.650;2023-08-20T02:00:23;10.35;;;9.35;;
46377;SDS011;32083;47.360;9.650;2023-08-20T02:02:53;10.20;;;9.05;;
46377;SDS011;32083;47.360;9.650;2023-08-20T02:05:22;12.15;;;9.65;;
46377;SDS011;32083;47.360;9.650;2023-08-20T02:07:50;10.50;;;9.43;;
46377;SDS011;32083;47.360;9.650;2023-08-20T02:10:16;14.70;;;9.57;;
46377;SDS011;32083;47.360;9.650;2023-08-20T02:12:46;10.18;;;8.77;;
46377;SDS011;32083;47.360;9.650;2023-08-20T02:15:17;11.05;;;9.63;;
46377;SDS011;32083;47.360;9.650;2023-08-20T02:17:43;10.00;;;9.00;;
46377;SDS011;32083;47.360;9.650;2023-08-20T02:20:11;13.60;;;9.48;;
46377;SDS011;32083;47.360;9.650;2023-08-20T02:22:37;11.70;;;8.45;;
46377;SDS011;32083;47.360;9.650;2023-08-20T02:25:02;13.40;;;11.80;;
46377;SDS011;32083;47.360;9.650;2023-08-20T02:27:30;12.68;;;9.63;;
46377;SDS011;32083;47.360;9.650;2023-08-20T02:29:56;10.60;;;8.82;;
46377;SDS011;32083;47.360;9.650;2023-08-20T02:32:22;11.40;;;9.80;;
46377;SDS011;32083;47.360;9.650;2023-08-20T02:34:51;12.13;;;10.05;;
46377;SDS011;32083;47.360;9.650;2023-08-20T02:37:17;13.10;;;9.98;;
46377;SDS011;32083;47.360;9.650;2023-08-20T02:39:43;10.40;;;9.32;;
46377;SDS011;32083;47.360;9.650;2023-08-20T02:42:09;11.25;;;9.10;;
46377;SDS011;32083;47.360;9.650;2023-08-20T02:44:34;10.57;;;9.38;;
46377;SDS011;32083;47.360;9.650;2023-08-20T02:47:00;10.43;;;9.32;;
46377;SDS011;32083;47.360;9.650;2023-08-20T02:49:26;10.55;;;9.45;;
46377;SDS011;32083;47.360;9.650;2023-08-20T02:51:54;10.98;;;8.65;;
46377;SDS011;32083;47.360;9.650;2023-08-20T02:54:22;10.05;;;8.20;;
46377;SDS011;32083;47.360;9.650;2023-08-20T02:56:59;10.05;;;8.35;;
46377;SDS011;32083;47.360;9.650;2023-08-20T02:59:28;9.18;;;8.27;;
46377;SDS011;32083;47.360;9.650;2023-08-20T03:01:56;11.02;;;9.45;;
46377;SDS011;32083;47.360;9.650;2023-08-20T03:04:29;14.07;;;10.85;;
46377;SDS011;32083;47.360;9.650;2023-08-20T03:06:55;10.25;;;9.18;;
46377;SDS011;32083;47.360;9.650;2023-08-20T03:09:26;8.68;;;7.70;;
46377;SDS011;32083;47.360;9.650;2023-08-20T03:11:52;11.73;;;9.07;;
46377;SDS011;32083;47.360;9.650;2023-08-20T03:14:21;11.02;;;8.75;;
46377;SDS011;32083;47.360;9.650;2023-08-20T03:16:49;9.23;;;8.30;;
46377;SDS011;32083;47.360;9.650;2023-08-20T03:19:15;11.55;;;9.90;;
46377;SDS011;32083;47.360;9.650;2023-08-20T03:21:41;10.02;;;9.02;;
46377;SDS011;32083;47.360;9.650;2023-08-20T03:24:10;10.77;;;9.73;;
46377;SDS011;32083;47.360;9.650;2023-08-20T03:26:37;11.55;;;9.57;;
46377;SDS011;32083;47.360;9.650;2023-08-20T03:29:06;9.80;;;8.77;;
46377;SDS011;32083;47.360;9.650;2023-08-20T03:31:32;12.57;;;9.75;;
46377;SDS011;32083;47.360;9.650;2023-08-20T03:33:58;11.02;;;9.55;;
46377;SDS011;32083;47.360;9.650;2023-08-20T03:36:24;10.65;;;9.23;;
46377;SDS011;32083;47.360;9.650;2023-08-20T03:38:50;11.43;;;10.27;;
46377;SDS011;32083;47.360;9.650;2023-08-20T03:41:19;10.88;;;9.77;;
46377;SDS011;32083;47.360;9.650;2023-08-20T03:43:45;11.90;;;10.57;;
46377;SDS011;32083;47.360;9.650;2023-08-20T03:46:13;10.98;;;9.82;;
46377;SDS011;32083;47.360;9.650;2023-08-20T03:48:39;14.13;;;10.35;;
46377;SDS011;32083;47.360;9.650;2023-08-20T03:51:05;13.02;;;9.73;;
46377;SDS011;32083;47.360;9.650;2023-08-20T03:53:31;9.82;;;8.82;;
46377;SDS011;32083;47.360;9.650;2023-08-20T03:55:57;8.88;;;8.07;;
46377;SDS011;32083;47.360;9.650;2023-08-20T03:58:23;12.55;;;8.98;;
46377;SDS011;32083;47.360;9.650;2023-08-20T04:00:49;10.27;;;9.25;;
46377;SDS011;32083;47.360;9.650;2023-08-20T04:03:15;10.07;;;9.07;;
46377;SDS011;32083;47.360;9.650;2023-08-20T04:05:44;11.55;;;8.98;;
46377;SDS011;32083;47.360;9.650;2023-08-20T04:08:10;12.32;;;9.73;;
46377;SDS011;32083;47.360;9.650;2023-08-20T04:10:41;10.35;;;9.05;;
46377;SDS011;32083;47.360;9.650;2023-08-20T04:13:11;10.77;;;9.77;;
46377;SDS011;32083;47.360;9.650;2023-08-20T04:15:39;9.30;;;8.23;;
46377;SDS011;32083;47.360;9.650;2023-08-20T04:18:25;11.00;;;9.80;;
46377;SDS011;32083;47.360;9.650;2023-08-20T04:20:51;9.18;;;8.38;;
46377;SDS011;32083;47.360;9.650;2023-08-20T04:23:18;10.90;;;9.43;;
46377;SDS011;32083;47.360;9.650;2023-08-20T04:25:46;11.85;;;8.43;;
46377;SDS011;32083;47.360;9.650;2023-08-20T04:28:12;13.98;;;8.40;;
46377;SDS011;32083;47.360;9.650;2023-08-20T04:30:38;9.25;;;8.10;;
46377;SDS011;32083;47.360;9.650;2023-08-20T04:33:04;12.15;;;9.57;;
46377;SDS011;32083;47.360;9.650;2023-08-20T04:35:33;11.05;;;7.95;;
46377;SDS011;32083;47.360;9.650;2023-08-20T04:37:59;11.32;;;9.40;;
46377;SDS011;32083;47.360;9.650;2023-08-20T04:40:25;9.88;;;8.95;;
46377;SDS011;32083;47.360;9.650;2023-08-20T04:42:53;9.40;;;8.50;;
46377;SDS011;32083;47.360;9.650;2023-08-20T04:45:22;11.48;;;8.40;;
46377;SDS011;32083;47.360;9.650;2023-08-20T04:47:48;10.75;;;9.65;;
46377;SDS011;32083;47.360;9.650;2023-08-20T04:50:14;10.45;;;9.45;;
46377;SDS011;32083;47.360;9.650;2023-08-20T04:52:40;10.57;;;9.35;;
46377;SDS011;32083;47.360;9.650;2023-08-20T04:55:05;9.75;;;8.43;;
46377;SDS011;32083;47.360;9.650;2023-08-20T04:57:33;10.75;;;9.23;;
46377;SDS011;32083;47.360;9.650;2023-08-20T04:59:59;10.85;;;9.32;;
46377;SDS011;32083;47.360;9.650;2023-08-20T05:02:25;17.52;;;9.07;;
46377;SDS011;32083;47.360;9.650;2023-08-20T05:04:55;10.18;;;8.85;;
46377;SDS011;32083;47.360;9.650;2023-08-20T05:07:21;10.27;;;9.20;;
46377;SDS011;32083;47.360;9.650;2023-08-20T05:09:51;12.10;;;9.15;;
46377;SDS011;32083;47.360;9.650;2023-08-20T05:14:57;14.73;;;9.70;;
46377;SDS011;32083;47.360;9.650;2023-08-20T05:17:24;11.38;;;9.82;;
46377;SDS011;32083;47.360;9.650;2023-08-20T05:19:50;11.45;;;10.32;;
46377;SDS011;32083;47.360;9.650;2023-08-20T05:22:17;10.40;;;9.40;;
46377;SDS011;32083;47.360;9.650;2023-08-20T05:24:44;11.23;;;10.10;;
46377;SDS011;32083;47.360;9.650;2023-08-20T05:27:15;10.00;;;9.10;;
46377;SDS011;32083;47.360;9.650;2023-08-20T05:29:42;11.20;;;10.10;;
46377;SDS011;32083;47.360;9.650;2023-08-20T05:32:16;10.55;;;9.45;;
46377;SDS011;32083;47.360;9.650;2023-08-20T05:34:42;10.23;;;9.23;;
46377;SDS011;32083;47.360;9.650;2023-08-20T05:37:10;10.98;;;9.88;;
46377;SDS011;32083;47.360;9.650;2023-08-20T05:39:36;12.57;;;9.75;;
46377;SDS011;32083;47.360;9.650;2023-08-20T05:42:08;12.63;;;10.48;;
46377;SDS011;32083;47.360;9.650;2023-08-20T05:44:34;10.15;;;9.07;;
46377;SDS011;32083;47.360;9.650;2023-08-20T05:47:09;10.48;;;9.30;;
46377;SDS011;32083;47.360;9.650;2023-08-20T05:49:37;11.38;;;8.68;;
46377;SDS011;32083;47.360;9.650;2023-08-20T05:52:07;10.45;;;9.35;;
46377;SDS011;32083;47.360;9.650;2023-08-20T05:54:34;9.98;;;8.63;;
46377;SDS011;32083;47.360;9.650;2023-08-20T05:57:03;9.27;;;8.38;;
46377;SDS011;32083;47.360;9.650;2023-08-20T05:59:34;12.95;;;8.18;;
46377;SDS011;32083;47.360;9.650;2023-08-20T06:02:02;12.77;;;8.75;;
46377;SDS011;32083;47.360;9.650;2023-08-20T06:04:28;9.77;;;7.88;;
46377;SDS011;32083;47.360;9.650;2023-08-20T06:06:55;8.82;;;7.93;;
46377;SDS011;32083;47.360;9.650;2023-08-20T06:09:21;7.80;;;7.10;;
46377;SDS011;32083;47.360;9.650;2023-08-20T06:11:48;8.27;;;7.43;;
46377;SDS011;32083;47.360;9.650;2023-08-20T06:14:16;7.28;;;6.57;;
46377;SDS011;32083;47.360;9.650;2023-08-20T06:16:42;13.65;;;7.88;;
46377;SDS011;32083;47.360;9.650;2023-08-20T06:19:09;10.52;;;7.70;;
46377;SDS011;32083;47.360;9.650;2023-08-20T06:21:36;9.00;;;7.50;;
46377;SDS011;32083;47.360;9.650;2023-08-20T06:24:05;8.50;;;7.57;;
46377;SDS011;32083;47.360;9.650;2023-08-20T06:26:36;10.75;;;7.50;;
46377;SDS011;32083;47.360;9.650;2023-08-20T06:29:04;7.78;;;7.07;;
46377;SDS011;32083;47.360;9.650;2023-08-20T06:31:31;10.38;;;7.43;;
46377;SDS011;32083;47.360;9.650;2023-08-20T06:33:57;8.98;;;7.00;;
46377;SDS011;32083;47.360;9.650;2023-08-20T06:36:25;10.50;;;9.05;;
46377;SDS011;32083;47.360;9.650;2023-08-20T06:38:51;8.43;;;7.53;;
46377;SDS011;32083;47.360;9.650;2023-08-20T06:41:19;9.05;;;6.45;;
46377;SDS011;32083;47.360;9.650;2023-08-20T06:43:47;9.20;;;7.65;;
46377;SDS011;32083;47.360;9.650;2023-08-20T06:46:14;10.27;;;6.95;;
46377;SDS011;32083;47.360;9.650;2023-08-20T06:48:42;11.77;;;7.28;;
46377;SDS011;32083;47.360;9.650;2023-08-20T06:51:10;9.02;;;8.23;;
46377;SDS011;32083;47.360;9.650;2023-08-20T06:53:37;10.80;;;7.47;;
46377;SDS011;32083;47.360;9.650;2023-08-20T06:56:03;8.63;;;7.30;;
46377;SDS011;32083;47.360;9.650;2023-08-20T06:58:31;10.30;;;8.27;;
46377;SDS011;32083;47.360;9.650;2023-08-20T07:00:56;10.13;;;8.10;;
46377;SDS011;32083;47.360;9.650;2023-08-20T07:03:32;11.68;;;8.10;;
46377;SDS011;32083;47.360;9.650;2023-08-20T07:06:00;8.70;;;7.68;;
46377;SDS011;32083;47.360;9.650;2023-08-20T07:08:26;8.32;;;6.10;;
46377;SDS011;32083;47.360;9.650;2023-08-20T07:10:52;6.75;;;6.13;;
46377;SDS011;32083;47.360;9.650;2023-08-20T07:13:18;8.23;;;6.60;;
46377;SDS011;32083;47.360;9.650;2023-08-20T07:15:46;7.60;;;6.65;;
46377;SDS011;32083;47.360;9.650;2023-08-20T07:18:11;7.57;;;6.88;;
46377;SDS011;32083;47.360;9.650;2023-08-20T07:20:40;8.98;;;6.18;;
46377;SDS011;32083;47.360;9.650;2023-08-20T07:23:09;7.07;;;6.00;;
46377;SDS011;32083;47.360;9.650;2023-08-20T07:25:39;9.05;;;6.28;;
46377;SDS011;32083;47.360;9.650;2023-08-20T07:28:09;5.95;;;5.35;;
46377;SDS011;32083;47.360;9.650;2023-08-20T07:30:35;8.30;;;5.57;;
46377;SDS011;32083;47.360;9.650;2023-08-20T07:33:02;6.25;;;5.30;;
46377;SDS011;32083;47.360;9.650;2023-08-20T07:35:29;6.78;;;6.18;;
46377;SDS011;32083;47.360;9.650;2023-08-20T07:37:56;6.93;;;6.22;;
46377;SDS011;32083;47.360;9.650;2023-08-20T07:40:25;11.18;;;6.05;;
46377;SDS011;32083;47.360;9.650;2023-08-20T07:42:51;7.97;;;6.05;;
46377;SDS011;32083;47.360;9.650;2023-08-20T07:45:19;7.25;;;6.07;;
46377;SDS011;32083;47.360;9.650;2023-08-20T07:47:49;6.90;;;5.97;;
46377;SDS011;32083;47.360;9.650;2023-08-20T07:50:16;6.90;;;5.93;;
46377;SDS011;32083;47.360;9.650;2023-08-20T07:52:47;6.90;;;5.82;;
46377;SDS011;32083;47.360;9.650;2023-08-20T07:55:22;9.60;;;6.40;;
46377;SDS011;32083;47.360;9.650;2023-08-20T07:57:48;8.68;;;6.70;;
46377;SDS011;32083;47.360;9.650;2023-08-20T08:00:16;7.13;;;6.00;;
46377;SDS011;32083;47.360;9.650;2023-08-20T08:02:47;8.10;;;6.18;;
46377;SDS011;32083;47.360;9.650;2023-08-20T08:05:13;6.85;;;6.13;;
46377;SDS011;32083;47.360;9.650;2023-08-20T08:07:39;16.55;;;14.80;;
46377;SDS011;32083;47.360;9.650;2023-08-20T08:10:09;8.30;;;7.35;;
46377;SDS011;32083;47.360;9.650;2023-08-20T08:12:36;6.28;;;5.68;;
46377;SDS011;32083;47.360;9.650;2023-08-20T08:15:22;6.80;;;6.20;;
46377;SDS011;32083;47.360;9.650;2023-08-20T08:17:48;7.82;;;6.35;;
46377;SDS011;32083;47.360;9.650;2023-08-20T08:20:15;9.38;;;6.28;;
46377;SDS011;32083;47.360;9.650;2023-08-20T08:22:46;6.90;;;6.00;;
46377;SDS011;32083;47.360;9.650;2023-08-20T08:25:17;6.80;;;6.20;;
46377;SDS011;32083;47.360;9.650;2023-08-20T08:27:44;8.20;;;5.82;;
46377;SDS011;32083;47.360;9.650;2023-08-20T08:30:11;9.38;;;5.75;;
46377;SDS011;32083;47.360;9.650;2023-08-20T08:32:39;7.35;;;6.15;;
46377;SDS011;32083;47.360;9.650;2023-08-20T08:35:07;6.22;;;5.50;;
46377;SDS011;32083;47.360;9.650;2023-08-20T08:37:35;7.63;;;6.13;;
46377;SDS011;32083;47.360;9.650;2023-08-20T08:40:06;7.75;;;6.55;;
46377;SDS011;32083;47.360;9.650;2023-08-20T08:42:34;5.50;;;4.88;;
46377;SDS011;32083;47.360;9.650;2023-08-20T08:45:05;7.00;;;5.68;;
46377;SDS011;32083;47.360;9.650;2023-08-20T08:47:40;6.97;;;5.53;;
46377;SDS011;32083;47.360;9.650;2023-08-20T08:50:18;9.48;;;5.00;;
46377;SDS011;32083;47.360;9.650;2023-08-20T08:52:50;5.30;;;4.80;;
46377;SDS011;32083;47.360;9.650;2023-08-20T08:55:17;6.00;;;5.47;;
46377;SDS011;32083;47.360;9.650;2023-08-20T08:57:50;6.82;;;5.47;;
46377;SDS011;32083;47.360;9.650;2023-08-20T09:00:24;5.80;;;5.22;;
46377;SDS011;32083;47.360;9.650;2023-08-20T09:02:53;6.93;;;5.60;;
46377;SDS011;32083;47.360;9.650;2023-08-20T09:05:25;6.10;;;5.45;;
46377;SDS011;32083;47.360;9.650;2023-08-20T09:07:55;6.75;;;5.35;;
46377;SDS011;32083;47.360;9.650;2023-08-20T09:10:22;5.72;;;5.18;;
46377;SDS011;32083;47.360;9.650;2023-08-20T09:12:53;5.72;;;5.13;;
46377;SDS011;32083;47.360;9.650;2023-08-20T09:15:22;6.10;;;5.50;;
46377;SDS011;32083;47.360;9.650;2023-08-20T09:23:04;6.70;;;5.65;;
46377;SDS011;32083;47.360;9.650;2023-08-20T09:25:38;6.22;;;5.35;;
46377;SDS011;32083;47.360;9.650;2023-08-20T09:28:05;6.70;;;5.32;;
46377;SDS011;32083;47.360;9.650;2023-08-20T09:30:33;8.02;;;6.00;;
46377;SDS011;32083;47.360;9.650;2023-08-20T09:33:06;6.55;;;5.93;;
46377;SDS011;32083;47.360;9.650;2023-08-20T09:35:36;8.73;;;6.47;;
46377;SDS011;32083;47.360;9.650;2023-08-20T09:38:03;6.40;;;5.80;;
46377;SDS011;32083;47.360;9.650;2023-08-20T09:40:30;6.25;;;5.55;;
46377;SDS011;32083;47.360;9.650;2023-08-20T09:42:57;7.63;;;6.85;;
46377;SDS011;32083;47.360;9.650;2023-08-20T09:45:28;6.95;;;6.22;;
46377;SDS011;32083;47.360;9.650;2023-08-20T09:47:54;7.13;;;6.43;;
46377;SDS011;32083;47.360;9.650;2023-08-20T09:50:27;16.45;;;7.07;;
46377;SDS011;32083;47.360;9.650;2023-08-20T09:53:01;6.22;;;5.63;;
46377;SDS011;32083;47.360;9.650;2023-08-20T09:55:44;6.53;;;5.68;;
46377;SDS011;32083;47.360;9.650;2023-08-20T09:58:11;5.80;;;5.30;;
46377;SDS011;32083;47.360;9.650;2023-08-20T10:00:38;6.18;;;5.53;;
46377;SDS011;32083;47.360;9.650;2023-08-20T10:03:07;6.18;;;5.57;;
46377;SDS011;32083;47.360;9.650;2023-08-20T10:05:34;7.05;;;6.35;;
46377;SDS011;32083;47.360;9.650;2023-08-20T10:08:02;9.95;;;6.32;;
46377;SDS011;32083;47.360;9.650;2023-08-20T10:10:32;8.00;;;5.78;;
46377;SDS011;32083;47.360;9.650;2023-08-20T10:13:02;6.35;;;5.15;;
46377;SDS011;32083;47.360;9.650;2023-08-20T10:15:29;7.10;;;6.30;;
46377;SDS011;32083;47.360;9.650;2023-08-20T10:17:57;8.45;;;5.80;;
46377;SDS011;32083;47.360;9.650;2023-08-20T10:20:23;7.68;;;5.65;;
46377;SDS011;32083;47.360;9.650;2023-08-20T10:22:49;6.45;;;5.85;;
46377;SDS011;32083;47.360;9.650;2023-08-20T10:25:25;5.70;;;5.20;;
46377;SDS011;32083;47.360;9.650;2023-08-20T10:27:52;7.35;;;6.63;;
46377;SDS011;32083;47.360;9.650;2023-08-20T10:30:25;6.65;;;5.93;;
46377;SDS011;32083;47.360;9.650;2023-08-20T10:35:29;7.65;;;5.07;;
46377;SDS011;32083;47.360;9.650;2023-08-20T10:38:15;6.95;;;5.72;;
46377;SDS011;32083;47.360;9.650;2023-08-20T10:40:54;6.53;;;5.88;;
46377;SDS011;32083;47.360;9.650;2023-08-20T10:51:26;6.90;;;6.30;;
46377;SDS011;32083;47.360;9.650;2023-08-20T10:56:47;7.70;;;6.78;;
46377;SDS011;32083;47.360;9.650;2023-08-20T10:59:17;6.65;;;5.70;;
46377;SDS011;32083;47.360;9.650;2023-08-20T11:01:57;8.60;;;7.35;;
46377;SDS011;32083;47.360;9.650;2023-08-20T11:04:27;6.85;;;6.25;;
46377;SDS011;32083;47.360;9.650;2023-08-20T11:06:59;8.15;;;7.10;;
46377;SDS011;32083;47.360;9.650;2023-08-20T11:09:27;8.18;;;6.68;;
46377;SDS011;32083;47.360;9.650;2023-08-20T11:11:54;13.38;;;7.47;;
46377;SDS011;32083;47.360;9.650;2023-08-20T11:14:21;8.18;;;6.72;;
46377;SDS011;32083;47.360;9.650;2023-08-20T11:16:48;7.93;;;6.78;;
46377;SDS011;32083;47.360;9.650;2023-08-20T11:19:14;7.20;;;6.50;;
46377;SDS011;32083;47.360;9.650;2023-08-20T11:21:45;7.35;;;6.57;;
46377;SDS011;32083;47.360;9.650;2023-08-20T11:24:12;7.88;;;6.90;;
46377;SDS011;32083;47.360;9.650;2023-08-20T11:26:41;6.75;;;6.13;;
46377;SDS011;32083;47.360;9.650;2023-08-20T11:29:09;6.93;;;6.20;;
46377;SDS011;32083;47.360;9.650;2023-08-20T11:31:46;11.00;;;6.45;;
46377;SDS011;32083;47.360;9.650;2023-08-20T11:34:14;10.02;;;7.22;;
46377;SDS011;32083;47.360;9.650;2023-08-20T11:36:48;8.63;;;7.07;;
46377;SDS011;32083;47.360;9.650;2023-08-20T11:39:15;8.50;;;6.78;;
46377;SDS011;32083;47.360;9.650;2023-08-20T11:41:43;7.72;;;7.03;;
46377;SDS011;32083;47.360;9.650;2023-08-20T11:44:18;7.47;;;6.60;;
46377;SDS011;32083;47.360;9.650;2023-08-20T11:46:45;9.40;;;7.13;;
46377;SDS011;32083;47.360;9.650;2023-08-20T11:49:12;8.27;;;7.30;;
46377;SDS011;32083;47.360;9.650;2023-08-20T11:51:41;7.68;;;6.90;;
46377;SDS011;32083;47.360;9.650;2023-08-20T11:54:15;7.97;;;7.15;;
46377;SDS011;32083;47.360;9.650;2023-08-20T11:56:50;9.07;;;8.10;;
46377;SDS011;32083;47.360;9.650;2023-08-20T11:59:18;8.05;;;7.28;;
46377;SDS011;32083;47.360;9.650;2023-08-20T12:01:52;11.20;;;7.88;;
46377;SDS011;32083;47.360;9.650;2023-08-20T12:04:23;9.45;;;7.97;;
46377;SDS011;32083;47.360;9.650;2023-08-20T12:09:30;11.02;;;8.13;;
46377;SDS011;32083;47.360;9.650;2023-08-20T12:11:59;10.85;;;7.65;;
46377;SDS011;32083;47.360;9.650;2023-08-20T12:14:27;8.88;;;7.97;;
46377;SDS011;32083;47.360;9.650;2023-08-20T12:16:57;10.50;;;7.53;;
46377;SDS011;32083;47.360;9.650;2023-08-20T12:19:26;7.43;;;6.57;;
46377;SDS011;32083;47.360;9.650;2023-08-20T12:21:55;9.95;;;6.32;;
46377;SDS011;32083;47.360;9.650;2023-08-20T12:24:22;7.88;;;6.97;;
46377;SDS011;32083;47.360;9.650;2023-08-20T12:26:49;9.13;;;6.13;;
46377;SDS011;32083;47.360;9.650;2023-08-20T12:29:21;6.97;;;6.22;;
46377;SDS011;32083;47.360;9.650;2023-08-20T12:31:52;9.40;;;6.15;;
46377;SDS011;32083;47.360;9.650;2023-08-20T12:34:24;7.47;;;6.78;;
46377;SDS011;32083;47.360;9.650;2023-08-20T12:36:52;9.25;;;7.18;;
46377;SDS011;32083;47.360;9.650;2023-08-20T12:39:28;7.63;;;6.82;;
46377;SDS011;32083;47.360;9.650;2023-08-20T12:42:00;9.02;;;6.63;;
46377;SDS011;32083;47.360;9.650;2023-08-20T12:44:26;10.68;;;6.63;;
46377;SDS011;32083;47.360;9.650;2023-08-20T12:46:53;9.60;;;7.18;;
46377;SDS011;32083;47.360;9.650;2023-08-20T12:49:22;7.70;;;6.70;;
46377;SDS011;32083;47.360;9.650;2023-08-20T12:51:50;13.05;;;7.43;;
46377;SDS011;32083;47.360;9.650;2023-08-20T12:54:25;9.23;;;7.03;;
46377;SDS011;32083;47.360;9.650;2023-08-20T12:56:51;7.18;;;6.50;;
46377;SDS011;32083;47.360;9.650;2023-08-20T12:59:20;11.63;;;6.30;;
46377;SDS011;32083;47.360;9.650;2023-08-20T13:01:48;9.27;;;7.45;;
46377;SDS011;32083;47.360;9.650;2023-08-20T13:04:19;8.98;;;7.00;;
46377;SDS011;32083;47.360;9.650;2023-08-20T13:06:48;7.40;;;6.55;;
46377;SDS011;32083;47.360;9.650;2023-08-20T13:09:14;9.55;;;7.03;;
46377;SDS011;32083;47.360;9.650;2023-08-20T13:11:43;7.43;;;6.72;;
46377;SDS011;32083;47.360;9.650;2023-08-20T13:14:14;7.63;;;6.80;;
46377;SDS011;32083;47.360;9.650;2023-08-20T13:16:42;7.93;;;5.95;;
46377;SDS011;32083;47.360;9.650;2023-08-20T13:19:12;6.47;;;5.82;;
46377;SDS011;32083;47.360;9.650;2023-08-20T13:21:41;8.07;;;7.10;;
46377;SDS011;32083;47.360;9.650;2023-08-20T13:24:11;9.82;;;7.60;;
46377;SDS011;32083;47.360;9.650;2023-08-20T13:26:41;7.05;;;6.35;;
46377;SDS011;32083;47.360;9.650;2023-08-20T13:29:07;7.13;;;6.30;;
46377;SDS011;32083;47.360;9.650;2023-08-20T13:31:36;9.65;;;5.97;;
46377;SDS011;32083;47.360;9.650;2023-08-20T13:34:02;7.18;;;6.45;;
46377;SDS011;32083;47.360;9.650;2023-08-20T13:36:31;7.88;;;6.15;;
46377;SDS011;32083;47.360;9.650;2023-08-20T13:39:01;7.00;;;6.30;;
46377;SDS011;32083;47.360;9.650;2023-08-20T13:41:41;6.22;;;5.53;;
46377;SDS011;32083;47.360;9.650;2023-08-20T13:44:11;7.07;;;5.72;;
46377;SDS011;32083;47.360;9.650;2023-08-20T13:46:49;8.38;;;5.30;;
46377;SDS011;32083;47.360;9.650;2023-08-20T13:49:24;9.30;;;4.97;;
46377;SDS011;32083;47.360;9.650;2023-08-20T13:52:00;9.80;;;4.97;;
46377;SDS011;32083;47.360;9.650;2023-08-20T13:54:32;6.25;;;5.57;;
46377;SDS011;32083;47.360;9.650;2023-08-20T13:57:01;8.80;;;5.53;;
46377;SDS011;32083;47.360;9.650;2023-08-20T13:59:28;6.25;;;5.03;;
46377;SDS011;32083;47.360;9.650;2023-08-20T14:02:04;6.05;;;5.55;;
46377;SDS011;32083;47.360;9.650;2023-08-20T14:04:38;7.15;;;5.72;;
46377;SDS011;32083;47.360;9.650;2023-08-20T14:07:24;6.60;;;4.97;;
46377;SDS011;32083;47.360;9.650;2023-08-20T14:09:54;9.60;;;5.60;;
46377;SDS011;32083;47.360;9.650;2023-08-20T14:12:23;6.30;;;5.15;;
46377;SDS011;32083;47.360;9.650;2023-08-20T14:14:50;7.32;;;5.55;;
46377;SDS011;32083;47.360;9.650;2023-08-20T14:17:17;6.00;;;5.22;;
46377;SDS011;32083;47.360;9.650;2023-08-20T14:19:52;6.70;;;4.88;;
46377;SDS011;32083;47.360;9.650;2023-08-20T14:22:26;8.75;;;5.30;;
46377;SDS011;32083;47.360;9.650;2023-08-20T14:24:56;7.80;;;5.05;;
46377;SDS011;32083;47.360;9.650;2023-08-20T14:27:47;7.50;;;5.78;;
46377;SDS011;32083;47.360;9.650;2023-08-20T14:30:17;5.93;;;5.35;;
46377;SDS011;32083;47.360;9.650;2023-08-20T14:32:44;5.82;;;5.20;;
46377;SDS011;32083;47.360;9.650;2023-08-20T14:35:19;5.75;;;4.88;;
46377;SDS011;32083;47.360;9.650;2023-08-20T14:38:03;6.97;;;5.60;;
46377;SDS011;32083;47.360;9.650;2023-08-20T14:40:58;6.10;;;5.45;;
46377;SDS011;32083;47.360;9.650;2023-08-20T14:43:29;6.70;;;4.80;;
46377;SDS011;32083;47.360;9.650;2023-08-20T14:45:58;9.30;;;5.75;;
46377;SDS011;32083;47.360;9.650;2023-08-20T14:48:35;6.55;;;4.88;;
46377;SDS011;32083;47.360;9.650;2023-08-20T14:51:06;6.78;;;4.82;;
46377;SDS011;32083;47.360;9.650;2023-08-20T14:53:34;8.70;;;5.47;;
46377;SDS011;32083;47.360;9.650;2023-08-20T14:56:02;6.28;;;5.65;;
46377;SDS011;32083;47.360;9.650;2023-08-20T14:58:28;6.00;;;5.07;;
46377;SDS011;32083;47.360;9.650;2023-08-20T15:00:56;6.35;;;5.55;;
46377;SDS011;32083;47.360;9.650;2023-08-20T15:03:24;9.20;;;5.72;;
46377;SDS011;32083;47.360;9.650;2023-08-20T15:05:50;7.70;;;5.55;;
46377;SDS011;32083;47.360;9.650;2023-08-20T15:08:40;6.10;;;5.25;;
46377;SDS011;32083;47.360;9.650;2023-08-20T15:11:11;7.55;;;5.22;;
46377;SDS011;32083;47.360;9.650;2023-08-20T15:13:45;7.45;;;5.15;;
46377;SDS011;32083;47.360;9.650;2023-08-20T15:16:11;9.48;;;5.85;;
46377;SDS011;32083;47.360;9.650;2023-08-20T15:18:43;6.55;;;5.30;;
46377;SDS011;32083;47.360;9.650;2023-08-20T15:21:10;9.43;;;5.70;;
46377;SDS011;32083;47.360;9.650;2023-08-20T15:26:10;8.43;;;5.75;;
46377;SDS011;32083;47.360;9.650;2023-08-20T15:28:36;5.72;;;5.22;;
46377;SDS011;32083;47.360;9.650;2023-08-20T15:31:02;6.40;;;5.68;;